createdAt,value
2023-03-17T00:00:59.300Z,6.94
2023-03-17T00:07:14.997Z,6.98
2023-03-17T00:09:47.656Z,6.97
2023-03-17T00:12:27.173Z,6.96
2023-03-17T00:15:16.968Z,6.90
2023-03-17T00:17:57.934Z,6.89
2023-03-17T00:20:34.294Z,6.87
2023-03-17T00:23:04.164Z,6.81
2023-03-17T00:25:42.905Z,6.74
2023-03-17T00:28:19.094Z,6.70
2023-03-17T00:30:56.033Z,6.69
2023-03-17T00:33:28.541Z,6.69
2023-03-17T00:35:59.624Z,6.62
2023-03-17T00:38:31.091Z,6.55
2023-03-17T00:41:03.162Z,6.47
2023-03-17T00:43:33.774Z,6.50
2023-03-17T00:46:10.631Z,6.52
2023-03-17T00:48:41.012Z,6.47
2023-03-17T00:51:10.190Z,6.45
2023-03-17T00:53:40.153Z,6.38
2023-03-17T00:56:16.455Z,6.37
2023-03-17T00:58:48.460Z,6.39
2023-03-17T01:01:20.782Z,6.40
2023-03-17T01:03:56.946Z,6.46
2023-03-17T01:06:26.890Z,6.47
2023-03-17T01:09:06.441Z,6.47
2023-03-17T01:11:41.640Z,6.47
2023-03-17T01:14:11.658Z,6.49
2023-03-17T01:16:41.381Z,6.50
2023-03-17T01:19:15.096Z,6.54
2023-03-17T01:21:46.414Z,6.57
2023-03-17T01:24:17.453Z,6.56
2023-03-17T01:26:50.372Z,6.46
2023-03-17T01:29:19.759Z,6.41
2023-03-17T01:31:50.130Z,6.35
2023-03-17T01:34:22.075Z,6.33
2023-03-17T01:36:52.911Z,6.26
2023-03-17T01:39:39.368Z,6.20
2023-03-17T01:42:09.890Z,6.11
2023-03-17T01:45:03.427Z,6.01
2023-03-17T01:47:33.272Z,5.97
2023-03-17T01:50:11.514Z,5.99
2023-03-17T01:52:41.048Z,6.00
2023-03-17T01:55:14.693Z,5.99
2023-03-17T01:57:50.121Z,5.94
2023-03-17T02:00:24.496Z,5.85
2023-03-17T02:02:57.819Z,5.73
2023-03-17T02:05:30.692Z,5.66
2023-03-17T02:08:00.201Z,5.57
2023-03-17T02:10:31.980Z,5.47
2023-03-17T02:13:05.083Z,5.38
2023-03-17T02:15:39.877Z,5.34
2023-03-17T02:18:11.874Z,5.30
2023-03-17T02:21:18.203Z,5.27
2023-03-17T02:23:49.795Z,5.19
2023-03-17T02:26:34.109Z,5.22
2023-03-17T02:29:23.393Z,5.22
2023-03-17T02:32:11.255Z,5.16
2023-03-17T02:34:41.982Z,5.16
2023-03-17T02:37:11.723Z,5.17
2023-03-17T02:39:43.054Z,5.17
2023-03-17T02:42:13.926Z,5.20
2023-03-17T02:44:45.099Z,5.15
2023-03-17T02:47:15.498Z,5.10
2023-03-17T02:49:46.053Z,5.10
2023-03-17T02:52:16.208Z,5.11
2023-03-17T02:54:47.683Z,5.13
2023-03-17T02:57:18.326Z,5.11
2023-03-17T02:59:48.251Z,5.08
2023-03-17T03:02:20.293Z,5.06
2023-03-17T03:04:50.639Z,5.05
2023-03-17T03:07:20.330Z,5.02
2023-03-17T03:09:49.662Z,4.98
2023-03-17T03:12:19.025Z,4.93
2023-03-17T03:14:54.034Z,4.85
2023-03-17T03:17:33.782Z,4.81
2023-03-17T03:20:03.788Z,4.72
2023-03-17T03:22:33.077Z,4.69
2023-03-17T03:25:01.709Z,4.67
2023-03-17T03:27:32.094Z,4.60
2023-03-17T03:30:04.710Z,4.52
2023-03-17T03:32:34.045Z,4.50
2023-03-17T03:35:03.780Z,4.54
2023-03-17T03:37:33.160Z,4.61
2023-03-17T03:40:03.676Z,4.59
2023-03-17T03:42:34.102Z,4.57
2023-03-17T03:45:05.165Z,4.54
2023-03-17T03:48:21.673Z,4.55
2023-03-17T03:50:34.492Z,4.60
2023-03-17T03:53:04.205Z,4.60
2023-03-17T03:55:34.324Z,4.58
2023-03-17T03:58:07.352Z,4.58
2023-03-17T04:00:36.749Z,4.63
2023-03-17T04:03:08.083Z,4.65
2023-03-17T04:05:37.680Z,4.62
2023-03-17T04:08:10.659Z,4.58
2023-03-17T04:10:43.449Z,4.56
2023-03-17T04:13:29.802Z,4.52
2023-03-17T04:16:06.551Z,4.52
2023-03-17T04:18:40.673Z,4.49
2023-03-17T04:21:18.516Z,4.45
2023-03-17T04:23:51.014Z,4.45
2023-03-17T04:26:22.555Z,4.45
2023-03-17T04:28:59.434Z,4.47
2023-03-17T04:31:34.113Z,4.49
2023-03-17T04:34:04.225Z,4.54
2023-03-17T04:36:36.728Z,4.67
2023-03-17T04:39:06.855Z,4.89
2023-03-17T04:41:40.487Z,4.97
2023-03-17T04:44:10.750Z,4.93
2023-03-17T04:46:41.740Z,4.86
2023-03-17T04:49:11.636Z,4.83
2023-03-17T04:51:41.544Z,4.81
2023-03-17T04:54:11.637Z,4.75
2023-03-17T04:56:40.732Z,4.71
2023-03-17T04:59:10.968Z,4.70
2023-03-17T05:13:14.226Z,4.64
2023-03-17T05:15:53.714Z,4.74
2023-03-17T05:18:25.137Z,4.82
2023-03-17T05:20:55.207Z,4.86
2023-03-17T05:23:29.194Z,4.98
2023-03-17T05:25:58.887Z,5.10
2023-03-17T05:28:28.675Z,5.28
2023-03-17T05:31:05.226Z,5.56
2023-03-17T05:33:36.927Z,5.81
2023-03-17T05:36:08.166Z,5.90
2023-03-17T05:38:40.106Z,6.14
2023-03-17T05:41:11.810Z,6.37
2023-03-17T05:43:43.023Z,6.62
2023-03-17T05:46:13.237Z,6.74
2023-03-17T05:48:48.018Z,6.64
2023-03-17T05:51:20.096Z,6.51
2023-03-17T05:53:58.688Z,6.50
2023-03-17T05:56:33.257Z,6.51
2023-03-17T05:59:09.731Z,6.48
2023-03-17T06:01:39.469Z,6.40
2023-03-17T06:04:15.237Z,6.35
2023-03-17T06:06:54.856Z,6.41
2023-03-17T06:09:27.892Z,6.76
2023-03-17T06:11:59.229Z,6.93
2023-03-17T06:14:29.768Z,7.20
2023-03-17T06:16:59.034Z,7.31
2023-03-17T06:19:33.412Z,7.14
2023-03-17T06:22:11.094Z,6.98
2023-03-17T06:24:41.055Z,7.12
2023-03-17T06:27:16.228Z,7.29
2023-03-17T06:29:45.762Z,7.22
2023-03-17T06:32:20.751Z,7.34
2023-03-17T06:34:51.311Z,7.41
2023-03-17T06:37:27.280Z,7.52
2023-03-17T06:39:57.956Z,7.62
2023-03-17T06:42:27.465Z,7.64
2023-03-17T06:44:57.597Z,7.68
2023-03-17T06:47:28.013Z,7.64
2023-03-17T06:49:58.741Z,7.56
2023-03-17T06:52:28.602Z,7.55
2023-03-17T06:54:58.977Z,7.52
2023-03-17T06:57:41.963Z,7.51
2023-03-17T07:00:21.194Z,7.62
2023-03-17T07:02:56.966Z,7.74
2023-03-17T07:05:34.231Z,7.84
2023-03-17T07:08:28.871Z,7.92
2023-03-17T07:11:35.129Z,8.00
2023-03-17T07:14:05.866Z,8.09
2023-03-17T07:16:41.938Z,8.16
2023-03-17T07:19:13.768Z,8.26
2023-03-17T07:21:44.885Z,8.34
2023-03-17T07:24:19.475Z,8.45
2023-03-17T07:26:56.639Z,8.50
2023-03-17T07:29:38.159Z,8.57
2023-03-17T07:32:17.407Z,8.64
2023-03-17T07:34:52.217Z,8.75
2023-03-17T07:37:28.192Z,8.85
2023-03-17T07:40:15.826Z,8.93
2023-03-17T07:42:46.061Z,9.01
2023-03-17T07:45:21.949Z,9.07
2023-03-17T07:47:53.348Z,9.14
2023-03-17T07:50:24.472Z,9.22
2023-03-17T07:52:54.676Z,9.28
2023-03-17T07:55:24.751Z,9.39
2023-03-17T07:57:59.742Z,9.46
2023-03-17T08:00:30.607Z,9.44
2023-03-17T08:03:10.386Z,9.31
2023-03-17T08:05:41.332Z,9.26
2023-03-17T08:11:20.505Z,9.47
2023-03-17T08:13:52.682Z,9.45
2023-03-17T08:16:22.759Z,9.37
2023-03-17T08:18:54.206Z,9.33
2023-03-17T08:21:33.951Z,9.38
2023-03-17T08:24:09.363Z,9.53
2023-03-17T08:26:46.570Z,9.66
2023-03-17T08:29:18.137Z,9.80
2023-03-17T08:31:48.383Z,9.93
2023-03-17T08:34:21.214Z,10.07
2023-03-17T08:37:06.155Z,10.17
2023-03-17T08:39:40.609Z,10.27
2023-03-17T08:42:11.467Z,10.35
2023-03-17T08:44:51.811Z,10.43
2023-03-17T08:47:26.837Z,10.50
2023-03-17T08:50:16.177Z,10.54
2023-03-17T08:52:58.793Z,10.59
2023-03-17T08:55:42.214Z,10.67
2023-03-17T08:58:21.730Z,10.65
2023-03-17T09:00:53.348Z,10.50
2023-03-17T09:03:29.487Z,10.42
2023-03-17T09:06:03.516Z,10.46
2023-03-17T09:08:42.447Z,10.50
2023-03-17T09:11:22.699Z,10.54
2023-03-17T09:13:57.941Z,10.60
2023-03-17T09:16:33.539Z,10.67
2023-03-17T09:19:06.483Z,10.76
2023-03-17T09:21:35.865Z,10.86
2023-03-17T09:24:14.298Z,10.96
2023-03-17T09:26:47.536Z,11.06
2023-03-17T09:29:37.981Z,11.13
2023-03-17T09:32:16.826Z,11.19
2023-03-17T09:34:53.274Z,11.24
2023-03-17T09:37:25.037Z,11.26
2023-03-17T09:39:58.593Z,11.28
2023-03-17T09:42:42.389Z,11.31
2023-03-17T09:45:21.816Z,11.30
2023-03-17T09:48:06.327Z,11.36
2023-03-17T09:50:44.863Z,11.23
2023-03-17T09:53:33.623Z,11.07
2023-03-17T09:56:12.160Z,11.04
2023-03-17T09:58:53.516Z,11.11
2023-03-17T10:01:25.195Z,11.15
2023-03-17T10:03:56.437Z,11.14
2023-03-17T10:06:37.003Z,10.93
2023-03-17T10:09:26.891Z,10.79
2023-03-17T10:12:05.596Z,10.86
2023-03-17T10:14:54.465Z,10.96
2023-03-17T10:17:28.398Z,11.05
2023-03-17T10:20:08.325Z,11.12
2023-03-17T10:22:48.482Z,11.17
2023-03-17T10:25:25.132Z,11.11
2023-03-17T10:27:59.925Z,10.92
2023-03-17T10:30:34.080Z,10.83
2023-03-17T10:33:07.430Z,10.78
2023-03-17T10:35:44.729Z,10.74
2023-03-17T10:38:18.519Z,10.67
2023-03-17T10:40:57.025Z,10.64
2023-03-17T10:43:35.710Z,10.55
2023-03-17T10:46:21.127Z,10.44
2023-03-17T10:48:59.850Z,10.38
2023-03-17T10:51:36.687Z,10.37
2023-03-17T10:54:23.179Z,10.28
2023-03-17T10:57:01.449Z,10.25
2023-03-17T10:59:37.672Z,10.33
2023-03-17T11:06:04.006Z,10.45
2023-03-17T11:08:41.035Z,10.62
2023-03-17T11:11:28.210Z,10.73
2023-03-17T11:14:05.498Z,10.81
2023-03-17T11:16:44.792Z,10.90
2023-03-17T11:19:18.309Z,11.00
2023-03-17T11:21:56.485Z,11.05
2023-03-17T11:24:35.278Z,11.09
2023-03-17T11:27:20.408Z,11.18
2023-03-17T11:30:03.168Z,11.25
2023-03-17T11:32:43.321Z,11.34
2023-03-17T11:35:44.606Z,11.27
2023-03-17T11:38:22.154Z,11.04
2023-03-17T11:41:20.771Z,11.02
2023-03-17T11:44:05.827Z,11.08
2023-03-17T11:46:45.296Z,11.15
2023-03-17T11:49:21.781Z,11.34
2023-03-17T11:52:02.622Z,11.51
2023-03-17T11:54:45.469Z,11.62
2023-03-17T11:57:29.555Z,11.70
2023-03-17T12:00:09.604Z,11.74
2023-03-17T12:02:54.150Z,11.78
2023-03-17T12:05:29.487Z,11.89
2023-03-17T12:08:13.690Z,11.88
2023-03-17T12:10:49.523Z,11.88
2023-03-17T12:13:28.981Z,11.89
2023-03-17T12:16:15.310Z,11.98
2023-03-17T12:18:55.217Z,12.03
2023-03-17T12:21:32.454Z,12.01
2023-03-17T12:24:06.893Z,11.94
2023-03-17T12:26:50.116Z,11.76
2023-03-17T12:29:28.260Z,11.56
2023-03-17T12:32:06.678Z,11.45
2023-03-17T12:34:52.012Z,11.49
2023-03-17T12:37:31.166Z,11.52
2023-03-17T12:40:09.588Z,11.44
2023-03-17T12:42:53.387Z,11.38
2023-03-17T12:45:55.331Z,11.34
2023-03-17T12:48:44.824Z,11.36
2023-03-17T12:51:49.465Z,11.40
2023-03-17T12:54:25.654Z,11.44
2023-03-17T12:57:11.266Z,11.45
2023-03-17T12:59:45.507Z,11.24
2023-03-17T13:02:31.402Z,10.96
2023-03-17T13:05:29.741Z,10.79
2023-03-17T13:08:15.365Z,10.71
2023-03-17T13:10:48.251Z,10.59
2023-03-17T13:13:48.271Z,10.52
2023-03-17T13:16:32.742Z,10.55
2023-03-17T13:19:20.720Z,10.81
2023-03-17T13:22:14.807Z,11.09
2023-03-17T13:24:47.474Z,11.35
2023-03-17T13:27:46.129Z,11.59
2023-03-17T13:30:44.105Z,11.72
2023-03-17T13:33:19.370Z,11.70
2023-03-17T13:36:16.042Z,11.76
2023-03-17T13:39:20.069Z,11.75
2023-03-17T13:42:18.933Z,11.69
2023-03-17T13:45:15.813Z,11.64
2023-03-17T13:47:46.671Z,11.74
2023-03-17T13:50:23.188Z,11.94
2023-03-17T13:53:02.346Z,12.37
2023-03-17T13:55:39.717Z,12.87
2023-03-17T13:58:35.597Z,13.55
2023-03-17T14:01:13.857Z,14.63
2023-03-17T14:03:53.376Z,15.41
2023-03-17T14:06:31.330Z,15.67
2023-03-17T14:09:13.648Z,15.92
2023-03-17T14:12:05.878Z,16.27
2023-03-17T14:14:46.644Z,16.69
2023-03-17T14:17:20.429Z,17.02
2023-03-17T14:20:04.689Z,17.21
2023-03-17T14:22:39.805Z,17.44
2023-03-17T14:25:18.566Z,17.60
2023-03-17T14:28:03.132Z,17.76
2023-03-17T14:30:40.364Z,17.63
2023-03-17T14:33:21.667Z,17.81
2023-03-17T14:35:53.740Z,18.18
2023-03-17T14:38:26.205Z,18.55
2023-03-17T14:41:04.311Z,18.74
2023-03-17T14:43:36.986Z,18.53
2023-03-17T14:46:13.424Z,18.41
2023-03-17T14:48:50.540Z,18.50
2023-03-17T14:51:28.578Z,18.47
2023-03-17T14:54:02.262Z,18.76
2023-03-17T14:56:35.644Z,18.86
2023-03-17T14:59:18.049Z,18.39
2023-03-17T15:01:48.886Z,18.46
2023-03-17T15:04:24.160Z,18.35
2023-03-17T15:06:55.297Z,18.11
2023-03-17T15:09:44.224Z,18.26
2023-03-17T15:12:22.242Z,18.26
2023-03-17T15:14:57.839Z,18.16
2023-03-17T15:17:31.456Z,18.31
2023-03-17T15:20:13.932Z,18.41
2023-03-17T15:22:48.248Z,18.24
2023-03-17T15:25:24.434Z,17.90
2023-03-17T15:28:00.732Z,17.60
2023-03-17T15:30:46.200Z,17.37
2023-03-17T15:33:23.091Z,16.40
2023-03-17T15:36:32.800Z,15.37
2023-03-17T15:39:09.211Z,14.24
2023-03-17T15:41:43.011Z,13.47
2023-03-17T15:44:13.084Z,12.91
2023-03-17T16:05:23.863Z,11.19
2023-03-17T16:07:55.969Z,11.03
2023-03-17T16:10:30.887Z,10.83
2023-03-17T16:13:04.140Z,10.57
2023-03-17T16:15:41.843Z,10.39
2023-03-17T16:18:18.252Z,10.24
2023-03-17T16:20:50.415Z,10.16
2023-03-17T16:23:35.332Z,10.06
2023-03-17T16:26:15.401Z,9.92
2023-03-17T16:28:48.491Z,9.74
2023-03-17T16:31:21.213Z,9.61
2023-03-17T16:33:52.972Z,9.52
2023-03-17T16:36:23.903Z,9.42
2023-03-17T16:38:55.638Z,9.38
2023-03-17T16:41:28.011Z,9.35
2023-03-17T16:44:05.187Z,9.33
2023-03-17T16:46:37.637Z,9.29
2023-03-17T16:49:07.930Z,9.18
2023-03-17T16:51:37.478Z,9.12
2023-03-17T16:54:07.819Z,9.09
2023-03-17T16:56:37.779Z,9.07
2023-03-17T16:59:10.801Z,9.05
2023-03-17T17:01:41.394Z,9.05
2023-03-17T17:04:13.323Z,9.09
2023-03-17T17:06:44.923Z,9.12
2023-03-17T17:09:15.341Z,9.15
2023-03-17T17:11:46.478Z,9.14
2023-03-17T17:14:31.998Z,9.13
2023-03-17T17:17:15.615Z,9.09
2023-03-17T17:20:03.621Z,9.09
2023-03-17T17:22:32.819Z,9.06
2023-03-17T17:25:01.166Z,9.00
2023-03-17T17:27:32.501Z,8.95
2023-03-17T17:30:03.193Z,8.93
2023-03-17T17:32:39.482Z,8.90
2023-03-17T17:35:13.420Z,8.91
2023-03-17T17:37:44.731Z,8.94
2023-03-17T17:40:27.587Z,8.98
2023-03-17T17:43:01.426Z,9.02
2023-03-17T17:45:38.095Z,9.05
2023-03-17T17:48:12.736Z,9.05
2023-03-17T17:51:16.496Z,9.04
2023-03-17T17:53:49.053Z,9.04
2023-03-17T17:56:34.995Z,9.06
2023-03-17T17:59:04.118Z,9.06
2023-03-17T18:01:36.524Z,9.06
2023-03-17T18:04:15.942Z,9.11
2023-03-17T18:06:46.197Z,9.17
2023-03-17T18:09:17.894Z,9.21
2023-03-17T18:11:47.370Z,9.20
2023-03-17T18:14:22.014Z,9.15
2023-03-17T18:16:52.305Z,9.09
2023-03-17T18:19:24.098Z,9.03
2023-03-17T18:21:56.781Z,9.00
2023-03-17T18:24:31.941Z,8.98
2023-03-17T18:27:03.368Z,8.90
2023-03-17T18:29:32.889Z,8.80
2023-03-17T18:32:02.597Z,8.76
2023-03-17T18:34:44.786Z,8.78
2023-03-17T18:37:46.747Z,8.90
2023-03-17T18:40:19.887Z,9.26
2023-03-17T18:42:56.517Z,9.53
2023-03-17T18:45:30.345Z,9.73
2023-03-17T18:48:19.404Z,9.91
2023-03-17T18:50:55.296Z,10.09
2023-03-17T18:53:26.514Z,10.21
2023-03-17T18:56:14.820Z,10.36
2023-03-17T18:59:19.642Z,10.36
2023-03-17T19:04:45.590Z,10.35
2023-03-17T19:07:17.753Z,10.43
2023-03-17T19:09:58.569Z,10.47
2023-03-17T19:12:46.436Z,10.54
2023-03-17T19:15:29.956Z,10.60
2023-03-17T19:18:00.125Z,10.59
2023-03-17T19:20:33.396Z,10.61
2023-03-17T19:23:38.841Z,10.63
2023-03-17T19:26:09.724Z,10.65
2023-03-17T19:28:39.593Z,10.67
2023-03-17T19:31:13.098Z,10.66
2023-03-17T19:33:44.073Z,10.62
2023-03-17T19:36:18.410Z,10.62
2023-03-17T19:39:04.350Z,10.68
2023-03-17T19:41:43.791Z,10.77
2023-03-17T19:44:23.685Z,10.83
2023-03-17T19:47:04.537Z,10.89
2023-03-17T19:49:37.495Z,10.96
2023-03-17T19:52:10.991Z,10.98
2023-03-17T19:54:47.761Z,10.99
2023-03-17T19:57:20.237Z,11.01
2023-03-17T19:59:49.542Z,10.96
2023-03-17T20:02:22.845Z,10.93
2023-03-17T20:04:53.423Z,10.88
2023-03-17T20:07:29.111Z,10.83
2023-03-17T20:10:02.368Z,10.79
2023-03-17T20:12:33.801Z,10.76
2023-03-17T20:15:22.509Z,10.73
2023-03-17T20:17:58.876Z,10.70
2023-03-17T20:20:37.661Z,10.69
2023-03-17T20:23:14.707Z,10.64
2023-03-17T20:25:46.604Z,10.59
2023-03-17T20:28:23.591Z,10.56
2023-03-17T20:31:05.342Z,10.55
2023-03-17T20:33:56.068Z,10.55
2023-03-17T20:36:44.512Z,10.54
2023-03-17T20:39:19.456Z,10.52
2023-03-17T20:42:01.144Z,10.49
2023-03-17T20:45:10.942Z,10.47
2023-03-17T20:47:45.758Z,10.45
2023-03-17T20:50:15.934Z,10.40
2023-03-17T20:52:45.988Z,10.37
2023-03-17T21:03:27.629Z,10.28
2023-03-17T21:06:01.920Z,10.25
2023-03-17T21:08:35.220Z,10.23
2023-03-17T21:11:05.979Z,10.21
2023-03-17T21:13:38.460Z,10.20
2023-03-17T21:16:12.616Z,10.18
2023-03-17T21:19:12.477Z,10.18
2023-03-17T21:21:44.036Z,10.18
2023-03-17T21:24:33.097Z,10.17
2023-03-17T21:28:05.239Z,10.18
2023-03-17T21:30:36.551Z,10.14
2023-03-17T21:33:06.520Z,10.14
2023-03-17T21:35:37.500Z,10.12
2023-03-17T21:38:09.436Z,10.12
2023-03-17T21:41:42.733Z,10.12
2023-03-17T21:44:20.436Z,10.11
2023-03-17T21:46:50.465Z,10.12
2023-03-17T21:49:24.928Z,10.11
2023-03-17T21:51:56.673Z,10.09
2023-03-17T21:54:35.101Z,10.06
2023-03-17T21:57:06.267Z,10.05
2023-03-17T21:59:35.765Z,10.02
2023-03-17T22:02:06.366Z,9.96
2023-03-17T22:04:35.921Z,9.91
2023-03-17T22:07:05.465Z,9.88
2023-03-17T22:09:36.121Z,9.86
2023-03-17T22:12:08.887Z,9.87
2023-03-17T22:14:39.269Z,9.85
2023-03-17T22:17:09.812Z,9.83
2023-03-17T22:19:41.778Z,9.82
2023-03-17T22:22:14.901Z,9.84
2023-03-17T22:24:51.263Z,9.83
2023-03-17T22:27:21.047Z,9.80
2023-03-17T22:29:52.267Z,9.76
2023-03-17T22:32:21.851Z,9.76
2023-03-17T22:34:56.243Z,9.76
2023-03-17T22:37:27.528Z,9.79
2023-03-17T22:40:01.863Z,9.80
2023-03-17T22:42:32.858Z,9.79
2023-03-17T22:45:05.810Z,9.79
2023-03-17T22:47:36.530Z,9.78
2023-03-17T22:50:08.244Z,9.74
2023-03-17T22:52:38.568Z,9.71
2023-03-17T22:55:10.067Z,9.69
2023-03-17T22:57:40.345Z,9.63
2023-03-17T23:00:16.944Z,9.59
2023-03-17T23:02:47.161Z,9.57
2023-03-17T23:05:16.458Z,9.57
2023-03-17T23:07:53.048Z,9.55
2023-03-17T23:10:25.660Z,9.54
2023-03-17T23:12:55.131Z,9.52
2023-03-17T23:15:25.923Z,9.50
2023-03-17T23:17:56.257Z,9.49
2023-03-17T23:20:26.292Z,9.48
2023-03-17T23:22:55.646Z,9.46
2023-03-17T23:25:25.317Z,9.42
2023-03-17T23:27:56.064Z,9.36
2023-03-17T23:30:28.786Z,9.31
2023-03-17T23:33:01.435Z,9.29
2023-03-17T23:35:33.964Z,9.27
2023-03-17T23:38:07.271Z,9.28
2023-03-17T23:40:37.979Z,9.28
2023-03-17T23:43:08.139Z,9.26
2023-03-17T23:45:38.878Z,9.27
2023-03-17T23:48:09.978Z,9.27
2023-03-17T23:50:42.143Z,9.27
2023-03-17T23:53:15.602Z,9.29
2023-03-17T23:55:46.333Z,9.29
2023-03-17T23:58:15.899Z,9.27
